Terminal Aerodrome Forecast
Issued by NWS

Home | Current Version | Previous Version | Text Only | Print | Product List | Glossary On
Versions: 1 2 3 4 5 6 7 8 9 10 11 12 13 14 15 16 17 18 19 20 21 22 23 24 25 26 27 28 29 30 31 32 33 34 35 36 37 38 39 40 41 42 43 44 45
000
FTUS45 KGJT 270546
TAFASE
TAF
KASE 270546Z 2706/2806 19007KT P6SM SCT070 WS020/24035KT
     FM271000 17006KT P6SM VCSH SCT035 BKN060 WS020/23040KT
     FM271700 21008KT P6SM VCSH BKN035
     FM272000 22010G25KT P6SM VCSH BKN040
     FM280000 35008KT 2SM -SHSN OVC020 WS020/25050KT=

USA.gov is the U.S. government's official web portal to all federal, state and local government web resources and services.